»·PEaware :: UAL250 MMMX-KLAX

UAL250 :: MMMX-KLAX

FLIGHT INFORMATION

Flight Status: Arrived
Operator:
United Airlines
More flights by this operator :: More flights under this callsign
Pilot: Anonymous 13363 (13363)
Aircraft: BOEING 737-800
(B738)
More flights by this aircraft type
Origin: MMMX Lic Benito Juarez Intl
Mexico
Destination: KLAX Los Angeles Intl
United States
More flights between these airports :: More routes between these airports
Route: +PTJ5A PTJ J13 ZCL UT10 PPE AMMOR SNSTT1
File this flight plan on PilotEdge
Remarks:
Altitude:
(Current/Filed)
36,000ft
Speed:
(Current/Filed)
460kts
Departed: 20-Jul-17 04:34 PM
Arrived: 20-Jul-17 08:01 PM
Distance/Time
Traveled:
1349nm/3:27
Distance/Time
To Go:
Arrived

Flight Plot

Page will automatically refresh every two minutes.

Flight plan parsing failed; only flown route is shown


Map Options




Map Legend


Flown Route
Filed Route
Departure Airport
Arrival Airport
Navaid (VOR, NDB)
Fix

Horizontal Profiles

Position Reports

Time Latitude Longitude Heading Altitude Ground
Speed
20-Jul-17 16:22 19.437977 -99.076857 239 7335ft 0kts
20-Jul-17 16:23 19.437977 -99.076857 239 7335ft 0kts
20-Jul-17 16:24 19.437977 -99.076857 239 7335ft 0kts
20-Jul-17 16:25 19.437977 -99.076857 239 7335ft 0kts
20-Jul-17 16:26 19.437977 -99.076857 239 7335ft 0kts
20-Jul-17 16:27 19.437977 -99.076857 239 7335ft 0kts
20-Jul-17 16:28 19.437977 -99.076857 239 7335ft 0kts
20-Jul-17 16:29 19.437977 -99.076857 239 7335ft 0kts
20-Jul-17 16:30 19.437977 -99.076857 239 7335ft 0kts
20-Jul-17 16:31 19.437926 -99.076921 224 7335ft 1kts
20-Jul-17 16:32 19.436974 -99.076792 174 7336ft 7kts
20-Jul-17 16:33 19.435560 -99.078524 239 7343ft 12kts
20-Jul-17 16:34 19.433099 -99.083107 243 7350ft 19kts
20-Jul-17 16:35 19.430185 -99.088133 238 7338ft 17kts
20-Jul-17 16:36 19.427553 -99.090570 92 7325ft 4kts
20-Jul-17 16:37 19.430954 -99.084407 58 7345ft 95kts
20-Jul-17 16:38 19.453637 -99.046463 57 8102ft 181kts
20-Jul-17 16:39 19.481692 -98.998658 58 10101ft 198kts
20-Jul-17 16:40 19.498441 -98.933779 108 11333ft 287kts
20-Jul-17 16:41 19.429403 -98.885843 179 13884ft 340kts
20-Jul-17 16:42 19.343190 -98.925691 231 17063ft 360kts
20-Jul-17 16:43 19.327422 -99.027461 277 20049ft 368kts
20-Jul-17 16:44 19.332621 -99.136405 280 22802ft 378kts
20-Jul-17 16:45 19.374560 -99.237840 298 25222ft 386kts
20-Jul-17 16:46 19.423866 -99.339967 298 27427ft 395kts
20-Jul-17 16:47 19.473522 -99.442207 297 29864ft 388kts
20-Jul-17 16:48 19.522280 -99.542705 297 31858ft 382kts
20-Jul-17 16:49 19.570467 -99.642209 297 33482ft 379kts
20-Jul-17 16:50 19.617357 -99.739276 296 34857ft 376kts
20-Jul-17 16:51 19.673616 -99.831397 309 36058ft 374kts
20-Jul-17 16:52 19.741935 -99.916090 310 36485ft 392kts
20-Jul-17 16:53 19.815162 -100.006482 310 36506ft 422kts
20-Jul-17 16:54 19.893061 -100.102634 310 36478ft 437kts
20-Jul-17 16:55 19.971634 -100.199721 310 36460ft 437kts
20-Jul-17 16:56 20.044230 -100.289589 310 36456ft 436kts
20-Jul-17 16:57 20.119207 -100.382558 310 36440ft 437kts
20-Jul-17 16:58 20.197579 -100.479870 310 36384ft 436kts
20-Jul-17 16:59 20.275804 -100.577174 310 36338ft 436kts
20-Jul-17 17:00 20.351691 -100.671717 309 36339ft 436kts
20-Jul-17 17:01 20.429704 -100.769100 309 36339ft 436kts
20-Jul-17 17:02 20.506800 -100.865518 309 36339ft 437kts
20-Jul-17 17:03 20.583995 -100.962221 309 36338ft 437kts
20-Jul-17 17:04 20.661498 -101.059395 310 36346ft 441kts
20-Jul-17 17:05 20.740965 -101.159164 310 36337ft 442kts
20-Jul-17 17:06 20.820017 -101.258611 310 36337ft 442kts
20-Jul-17 17:07 20.898997 -101.358151 310 36337ft 442kts
20-Jul-17 17:08 20.977530 -101.457299 310 36338ft 441kts
20-Jul-17 17:09 21.058869 -101.554025 312 36335ft 436kts
20-Jul-17 17:10 21.136485 -101.644573 312 36336ft 432kts
20-Jul-17 17:11 21.215200 -101.736354 312 36340ft 432kts
20-Jul-17 17:12 21.296099 -101.830897 312 36331ft 432kts
20-Jul-17 17:13 21.376866 -101.925485 312 36316ft 432kts
20-Jul-17 17:14 21.457376 -102.019951 312 36302ft 432kts
20-Jul-17 17:15 21.537691 -102.114322 312 36338ft 432kts
20-Jul-17 17:16 21.618547 -102.209525 312 36337ft 432kts
20-Jul-17 17:17 21.700395 -102.302756 322 36313ft 432kts
20-Jul-17 17:18 21.812002 -102.349785 341 36341ft 435kts
20-Jul-17 17:19 21.927275 -102.387105 342 36336ft 435kts
20-Jul-17 17:20 22.042534 -102.423746 342 36335ft 435kts
20-Jul-17 17:21 22.155451 -102.459587 342 36338ft 435kts
20-Jul-17 17:22 22.270981 -102.496298 342 36337ft 435kts
20-Jul-17 17:23 22.386330 -102.533017 342 36337ft 435kts
20-Jul-17 17:24 22.501900 -102.569870 342 36336ft 435kts
20-Jul-17 17:25 22.617088 -102.606664 342 36336ft 435kts
20-Jul-17 17:26 22.732672 -102.643651 342 36335ft 435kts
20-Jul-17 17:27 22.844859 -102.679615 342 36338ft 435kts
20-Jul-17 17:28 22.940744 -102.755203 315 36346ft 436kts
20-Jul-17 17:29 23.026405 -102.849212 315 36338ft 442kts
20-Jul-17 17:30 23.109233 -102.941347 315 36337ft 443kts
20-Jul-17 17:31 23.194550 -103.036841 315 36337ft 441kts
20-Jul-17 17:32 23.279039 -103.131648 315 36332ft 439kts
20-Jul-17 17:33 23.362668 -103.225691 315 36329ft 437kts
20-Jul-17 17:34 23.445656 -103.319282 315 36329ft 437kts
20-Jul-17 17:35 23.528742 -103.413131 315 36328ft 437kts
20-Jul-17 17:36 23.610915 -103.506112 315 36328ft 437kts
20-Jul-17 17:37 23.694057 -103.600371 315 36327ft 437kts
20-Jul-17 17:38 23.774128 -103.691329 314 36328ft 437kts
20-Jul-17 17:39 23.856931 -103.785558 314 36327ft 437kts
20-Jul-17 17:40 23.939544 -103.879759 314 36327ft 437kts
20-Jul-17 17:41 24.022240 -103.974267 314 36327ft 437kts
20-Jul-17 17:42 24.103850 -104.067718 314 36327ft 437kts
20-Jul-17 17:43 24.186630 -104.162681 314 36330ft 437kts
20-Jul-17 17:44 24.270117 -104.258643 314 36330ft 437kts
20-Jul-17 17:45 24.352623 -104.353661 314 36329ft 437kts
20-Jul-17 17:46 24.435555 -104.449420 314 36329ft 437kts
20-Jul-17 17:47 24.518298 -104.545156 314 36328ft 437kts
20-Jul-17 17:48 24.600707 -104.640697 314 36328ft 437kts
20-Jul-17 17:49 24.679969 -104.732775 314 36328ft 437kts
20-Jul-17 17:50 24.761941 -104.828178 314 36328ft 437kts
20-Jul-17 17:51 24.843375 -104.923239 314 36327ft 439kts
20-Jul-17 17:52 24.926217 -105.020168 315 36327ft 447kts
20-Jul-17 17:53 25.009861 -105.117938 314 36328ft 449kts
20-Jul-17 17:54 25.093878 -105.216384 314 36326ft 442kts
20-Jul-17 17:55 25.174057 -105.310662 314 36331ft 440kts
20-Jul-17 17:56 25.255869 -105.407279 314 37092ft 430kts
20-Jul-17 17:57 25.337079 -105.503232 314 38202ft 431kts
20-Jul-17 17:58 25.419195 -105.600434 314 38323ft 435kts
20-Jul-17 17:59 25.499481 -105.695684 313 38204ft 435kts
20-Jul-17 18:00 25.580758 -105.792290 313 38057ft 435kts
20-Jul-17 18:01 25.662445 -105.889584 313 37963ft 435kts
20-Jul-17 18:02 25.743958 -105.986741 313 37962ft 435kts
20-Jul-17 18:03 25.825526 -106.084178 313 37962ft 435kts
20-Jul-17 18:04 25.906155 -106.180699 313 37961ft 435kts
20-Jul-17 18:05 25.987129 -106.277844 313 37961ft 435kts
20-Jul-17 18:06 26.067497 -106.374473 313 37961ft 435kts
20-Jul-17 18:07 26.146011 -106.469072 313 37963ft 435kts
20-Jul-17 18:08 26.227023 -106.566891 313 37964ft 435kts
20-Jul-17 18:09 26.305351 -106.661678 313 37964ft 435kts
20-Jul-17 18:10 26.385865 -106.759331 313 37963ft 435kts
20-Jul-17 18:11 26.466009 -106.856908 313 37963ft 438kts
20-Jul-17 18:12 26.546770 -106.955564 314 37963ft 443kts
20-Jul-17 18:13 26.628834 -107.055748 314 37964ft 449kts
20-Jul-17 18:14 26.711977 -107.157582 314 37963ft 449kts
20-Jul-17 18:15 26.794238 -107.258635 314 37986ft 449kts
20-Jul-17 18:16 26.877250 -107.360836 314 37970ft 449kts
20-Jul-17 18:17 26.959662 -107.462408 313 37998ft 446kts
20-Jul-17 18:18 27.042455 -107.564749 313 37962ft 445kts
20-Jul-17 18:19 27.120212 -107.661308 312 38018ft 446kts
20-Jul-17 18:20 27.202630 -107.763819 312 37974ft 445kts
20-Jul-17 18:21 27.284576 -107.865981 312 37940ft 445kts
20-Jul-17 18:22 27.366799 -107.968726 312 37927ft 445kts
20-Jul-17 18:23 27.448592 -108.071183 312 37927ft 445kts
20-Jul-17 18:24 27.530764 -108.174359 312 37927ft 445kts
20-Jul-17 18:25 27.612822 -108.277639 312 37926ft 445kts
20-Jul-17 18:26 27.694990 -108.381309 312 37926ft 445kts
20-Jul-17 18:27 27.763308 -108.467703 312 37926ft 445kts
20-Jul-17 18:28 27.844711 -108.570873 312 37926ft 445kts
20-Jul-17 18:29 27.924085 -108.671716 312 37925ft 445kts
20-Jul-17 18:30 28.005687 -108.775634 312 37925ft 445kts
20-Jul-17 18:31 28.087179 -108.879671 312 37925ft 445kts
20-Jul-17 18:32 28.166801 -108.981578 312 37927ft 445kts
20-Jul-17 18:33 28.247273 -109.084871 312 37927ft 446kts
20-Jul-17 18:34 28.328832 -109.189781 312 37927ft 447kts
20-Jul-17 18:35 28.424391 -109.312916 312 37927ft 447kts
20-Jul-17 18:36 28.492313 -109.400659 312 37927ft 447kts
20-Jul-17 18:37 28.573900 -109.506309 312 37927ft 447kts
20-Jul-17 18:38 28.655436 -109.612162 312 37929ft 447kts
20-Jul-17 18:39 28.736288 -109.717403 312 37969ft 447kts
20-Jul-17 18:40 28.817679 -109.823610 312 38008ft 447kts
20-Jul-17 18:41 28.898994 -109.929997 312 38008ft 447kts
20-Jul-17 18:42 28.980292 -110.036642 312 38009ft 447kts
20-Jul-17 18:43 29.060860 -110.142481 312 38007ft 441kts
20-Jul-17 18:44 29.138748 -110.245030 311 38009ft 439kts
20-Jul-17 18:45 29.218053 -110.350052 311 38009ft 439kts
20-Jul-17 18:46 29.297101 -110.454873 311 38009ft 439kts
20-Jul-17 18:47 29.376589 -110.560513 311 38008ft 439kts
20-Jul-17 18:48 29.455036 -110.665021 311 38010ft 439kts
20-Jul-17 18:49 29.534094 -110.770619 311 38008ft 439kts
20-Jul-17 18:50 29.613166 -110.876515 311 38009ft 439kts
20-Jul-17 18:51 29.691858 -110.981858 310 38009ft 441kts
20-Jul-17 18:52 29.771417 -111.089022 310 38009ft 445kts
20-Jul-17 18:53 29.851265 -111.197026 310 38008ft 446kts
20-Jul-17 18:54 29.931012 -111.305013 310 38009ft 446kts
20-Jul-17 18:55 30.010966 -111.413538 310 38009ft 446kts
20-Jul-17 18:56 30.090808 -111.522200 310 38008ft 446kts
20-Jul-17 18:57 30.167246 -111.626504 310 38008ft 446kts
20-Jul-17 18:58 30.246248 -111.734595 309 38009ft 446kts
20-Jul-17 18:59 30.325634 -111.843517 309 38086ft 446kts
20-Jul-17 19:00 30.405001 -111.952708 309 38167ft 446kts
20-Jul-17 19:01 30.484110 -112.061847 309 38173ft 446kts
20-Jul-17 19:02 30.563393 -112.171534 309 38173ft 446kts
20-Jul-17 19:03 30.642649 -112.281489 309 38173ft 446kts
20-Jul-17 19:04 30.721525 -112.391223 309 38173ft 446kts
20-Jul-17 19:05 30.800545 -112.501470 309 38173ft 446kts
20-Jul-17 19:06 30.879768 -112.612314 309 38173ft 446kts
20-Jul-17 19:07 30.957239 -112.720884 308 38144ft 444kts
20-Jul-17 19:08 31.035375 -112.830736 308 38066ft 441kts
20-Jul-17 19:09 31.111958 -112.938518 307 38056ft 442kts
20-Jul-17 19:10 31.189939 -113.048818 307 38054ft 446kts
20-Jul-17 19:11 31.268150 -113.160157 307 37969ft 445kts
20-Jul-17 19:12 31.346465 -113.271741 307 37880ft 445kts
20-Jul-17 19:13 31.416929 -113.389841 301 37863ft 444kts
20-Jul-17 19:14 31.484622 -113.510329 301 37861ft 444kts
20-Jul-17 19:15 31.551998 -113.630733 301 37861ft 444kts
20-Jul-17 19:16 31.617873 -113.748980 300 37862ft 442kts
20-Jul-17 19:17 31.684821 -113.869288 300 37863ft 442kts
20-Jul-17 19:18 31.751553 -113.989655 300 37863ft 442kts
20-Jul-17 19:19 31.818271 -114.110403 300 37863ft 442kts
20-Jul-17 19:20 31.884914 -114.231398 300 37863ft 442kts
20-Jul-17 19:21 31.948910 -114.347950 300 37863ft 442kts
20-Jul-17 19:22 32.015175 -114.469012 300 37863ft 442kts
20-Jul-17 19:23 32.081548 -114.590660 300 37862ft 442kts
20-Jul-17 19:24 32.146825 -114.710681 300 37862ft 442kts
20-Jul-17 19:25 32.206822 -114.821320 300 37862ft 442kts
20-Jul-17 19:26 32.272700 -114.943185 300 37862ft 442kts
20-Jul-17 19:27 32.338646 -115.065489 300 37849ft 444kts
20-Jul-17 19:28 32.404993 -115.188894 300 37830ft 446kts
20-Jul-17 19:29 32.470835 -115.311875 300 37825ft 446kts
20-Jul-17 19:30 32.533411 -115.429081 300 37825ft 446kts
20-Jul-17 19:31 32.599208 -115.552704 300 37832ft 446kts
20-Jul-17 19:32 32.661585 -115.670303 299 37843ft 446kts
20-Jul-17 19:33 32.725767 -115.791857 299 37845ft 446kts
20-Jul-17 19:34 32.790832 -115.915382 299 37139ft 437kts
20-Jul-17 19:35 32.855606 -116.043498 298 35122ft 480kts
20-Jul-17 19:36 32.923144 -116.178445 298 32874ft 461kts
20-Jul-17 19:37 32.985247 -116.303135 298 30937ft 421kts
20-Jul-17 19:38 33.039121 -116.411649 299 29266ft 388kts
20-Jul-17 19:39 33.106619 -116.510532 308 27515ft 397kts
20-Jul-17 19:40 33.178072 -116.610570 309 25641ft 396kts
20-Jul-17 19:41 33.270084 -116.672346 338 22983ft 400kts
20-Jul-17 19:42 33.361180 -116.711901 338 21293ft 386kts
20-Jul-17 19:43 33.460601 -116.754486 339 19487ft 377kts
20-Jul-17 19:44 33.547318 -116.801095 327 18572ft 370kts
20-Jul-17 19:45 33.634516 -116.866099 326 18304ft 375kts
20-Jul-17 19:46 33.713306 -116.939718 302 16876ft 353kts
20-Jul-17 19:47 33.764035 -117.041858 299 15769ft 355kts
20-Jul-17 19:48 33.811466 -117.142458 298 14317ft 341kts
20-Jul-17 19:49 33.857917 -117.242428 298 14146ft 344kts
20-Jul-17 19:50 33.904229 -117.342325 298 14050ft 343kts
20-Jul-17 19:51 33.949786 -117.439994 298 13520ft 326kts
20-Jul-17 19:52 33.969501 -117.538914 269 12694ft 323kts
20-Jul-17 19:53 33.985830 -117.640159 300 11982ft 319kts
20-Jul-17 19:54 34.000493 -117.730631 265 11992ft 320kts
20-Jul-17 19:55 33.991523 -117.836362 263 11285ft 321kts
20-Jul-17 19:56 33.983558 -117.920992 263 9260ft 294kts
20-Jul-17 19:57 33.974692 -118.012159 262 6799ft 265kts
20-Jul-17 19:58 33.966566 -118.093999 262 4924ft 236kts
20-Jul-17 19:59 33.959254 -118.166889 261 3787ft 219kts
20-Jul-17 20:00 33.952077 -118.238178 261 2536ft 207kts
20-Jul-17 20:01 33.946188 -118.296305 261 1515ft 152kts
20-Jul-17 20:02 33.941486 -118.343446 261 913ft 145kts
20-Jul-17 20:03 33.936689 -118.389439 262 116ft 131kts
20-Jul-17 20:04 33.935885 -118.402454 286 110ft 22kts
20-Jul-17 20:05 33.936194 -118.408657 309 110ft 14kts
20-Jul-17 20:06 33.938012 -118.407475 83 110ft 18kts
20-Jul-17 20:07 33.938859 -118.399211 82 110ft 21kts
20-Jul-17 20:08 33.942222 -118.398651 281 110ft 5kts
20-Jul-17 20:09 33.942213 -118.399096 264 110ft 0kts
20-Jul-17 20:10 33.942213 -118.399096 264 110ft 0kts
20-Jul-17 20:11 33.942213 -118.399096 264 110ft 0kts
20-Jul-17 20:12 33.942213 -118.399096 264 110ft 0kts
20-Jul-17 20:13 33.942213 -118.399096 264 110ft 0kts
20-Jul-17 20:14 33.942213 -118.399096 264 110ft 0kts
20-Jul-17 20:15 33.942213 -118.399096 264 110ft 0kts
20-Jul-17 20:16 33.942213 -118.399096 264 110ft 0kts

Navigation Log

Ident Type
Flight plan parsing failed, navigation log unavailable